Mesquite's Hourly Summary for Tuesday, March 14, 2017
Hour Temp
(f)
RH
(%)
Solar Rad.
(MJ/m2)
Rainfall
(in)
Wind
(mph)
3/14/2017 12:00 AM 46 42 0 0 3.24
3/14/2017 1:00 AM 44 45 0 0 3.76
3/14/2017 2:00 AM 43 50 0 0 2.62
3/14/2017 3:00 AM 41 52 0 0 3.37
3/14/2017 4:00 AM 41 56 0 0 1.97
3/14/2017 5:00 AM 39 57 0 0 0.1
3/14/2017 6:00 AM 38 63 0 0 0.3
3/14/2017 7:00 AM 37 67 0 0 0.5
3/14/2017 8:00 AM 37 72 0.02 0 0.04
3/14/2017 9:00 AM 41 61 0.46 0 0.46
3/14/2017 10:00 AM 43 48 1.12 0 5.16
3/14/2017 11:00 AM 47 43 1.79 0 3.22
3/14/2017 12:00 PM 49 42 2.38 0 2.74
3/14/2017 1:00 PM 52 38 2.8 0 3.02
3/14/2017 2:00 PM 55 37 2.98 0 3.54
3/14/2017 3:00 PM 57 34 2.86 0 3.58
3/14/2017 4:00 PM 59 33 2.59 0 3.91
3/14/2017 5:00 PM 60 34 2.09 0 4.01
3/14/2017 6:00 PM 61 34 1.25 0 2.79
3/14/2017 7:00 PM 61 34 0.43 0 2.05
3/14/2017 8:00 PM 58 38 0.04 0 3.92
3/14/2017 9:00 PM 56 45 0 0 3.91
3/14/2017 10:00 PM 54 48 0 0 3.5
3/14/2017 11:00 PM 53 53 0 0 3.22
Data Summary 48 46 20.81 0.00 2.71